createdAt,value
2019-01-19T00:01:13.612Z,28.35
2019-01-19T00:02:42.331Z,27.82
2019-01-19T00:04:16.305Z,28.00
2019-01-19T00:06:06.314Z,28.80
2019-01-19T00:07:40.612Z,28.52
2019-01-19T00:08:40.812Z,28.42
2019-01-19T00:09:44.625Z,28.30
2019-01-19T00:11:11.731Z,28.45
2019-01-19T00:12:58.843Z,29.60
2019-01-19T00:13:56.905Z,28.95
2019-01-19T00:14:47.469Z,28.80
2019-01-19T00:15:49.768Z,28.75
2019-01-19T00:17:45.563Z,29.30
2019-01-19T00:19:27.353Z,29.35
2019-01-19T00:21:04.437Z,29.00
2019-01-19T00:22:47.054Z,28.95
2019-01-19T00:24:08.495Z,30.25
2019-01-19T00:25:37.627Z,29.95
2019-01-19T00:27:04.133Z,30.70
2019-01-19T00:28:13.073Z,31.23
2019-01-19T00:29:12.231Z,32.88
2019-01-19T00:30:20.498Z,32.90
2019-01-19T00:31:10.757Z,33.30
2019-01-19T00:32:44.204Z,32.93
2019-01-19T00:34:33.935Z,34.25
2019-01-19T00:35:48.688Z,33.18
2019-01-19T00:36:36.145Z,35.40
2019-01-19T00:37:31.165Z,34.80
2019-01-19T00:38:45.970Z,34.98
2019-01-19T00:40:23.006Z,34.67
2019-01-19T00:42:01.844Z,34.60
2019-01-19T00:43:35.332Z,35.38
2019-01-19T00:44:45.095Z,35.40
2019-01-19T00:46:27.977Z,34.80
2019-01-19T00:47:22.445Z,35.80
2019-01-19T00:48:38.674Z,34.35
2019-01-19T00:49:33.530Z,35.75
2019-01-19T00:50:47.323Z,35.20
2019-01-19T00:51:52.077Z,37.30
2019-01-19T00:53:02.501Z,36.73
2019-01-19T00:53:51.694Z,37.13
2019-01-19T00:54:51.060Z,37.67
2019-01-19T00:56:34.765Z,37.20
2019-01-19T00:58:30.494Z,37.33
2019-01-19T00:59:11.369Z,37.17
2019-01-19T00:59:52.530Z,35.75
2019-01-19T01:00:47.945Z,37.08
2019-01-19T01:02:40.823Z,37.40
2019-01-19T01:03:42.704Z,37.70
2019-01-19T01:04:55.153Z,37.45
2019-01-19T01:05:38.544Z,36.63
2019-01-19T01:07:14.298Z,36.75
2019-01-19T01:08:45.272Z,36.80
2019-01-19T01:10:03.639Z,36.33
2019-01-19T01:10:58.049Z,36.48
2019-01-19T01:12:45.159Z,36.23
2019-01-19T01:14:15.505Z,35.83
2019-01-19T01:15:54.153Z,36.73
2019-01-19T01:17:00.368Z,35.25
2019-01-19T01:18:36.580Z,36.15
2019-01-19T01:20:10.250Z,36.10
2019-01-19T01:21:39.380Z,37.88
2019-01-19T01:22:58.556Z,37.33
2019-01-19T01:24:06.504Z,36.33
2019-01-19T01:25:11.620Z,37.17
2019-01-19T01:27:11.118Z,36.75
2019-01-19T01:28:24.948Z,36.25
2019-01-19T01:30:06.122Z,34.75
2019-01-19T01:31:15.617Z,35.33
2019-01-19T01:32:15.106Z,36.95
2019-01-19T01:33:27.998Z,36.77
2019-01-19T01:35:20.866Z,36.42
2019-01-19T01:37:07.850Z,35.65
2019-01-19T01:38:16.359Z,36.17
2019-01-19T01:39:53.008Z,36.68
2019-01-19T01:41:17.180Z,36.25
2019-01-19T01:43:18.018Z,35.28
2019-01-19T01:44:45.450Z,35.75
2019-01-19T01:46:07.729Z,35.00
2019-01-19T01:47:33.399Z,34.83
2019-01-19T01:49:24.654Z,35.68
2019-01-19T01:50:32.129Z,35.30
2019-01-19T01:51:59.386Z,34.75
2019-01-19T01:53:15.528Z,35.30
2019-01-19T01:54:41.868Z,34.60
2019-01-19T01:55:34.989Z,35.50
2019-01-19T01:56:14.312Z,34.13
2019-01-19T01:56:47.508Z,34.25
2019-01-19T01:57:36.875Z,34.33
2019-01-19T01:58:51.579Z,33.55
2019-01-19T02:00:16.477Z,33.38
2019-01-19T02:01:53.246Z,34.85
2019-01-19T02:02:51.433Z,32.50
2019-01-19T02:04:30.163Z,35.03
2019-01-19T02:06:00.337Z,34.03
2019-01-19T02:07:24.073Z,33.70
2019-01-19T02:08:49.682Z,33.50
2019-01-19T02:10:16.773Z,33.33
2019-01-19T02:11:57.024Z,34.20
2019-01-19T02:13:16.176Z,34.13
2019-01-19T02:14:22.997Z,35.30
2019-01-19T02:15:57.451Z,35.45
2019-01-19T02:17:31.174Z,35.98
2019-01-19T02:18:50.123Z,35.25
2019-01-19T02:20:07.604Z,36.90
2019-01-19T02:21:41.880Z,36.48
2019-01-19T02:23:19.609Z,37.00
2019-01-19T02:24:28.505Z,35.00
2019-01-19T02:26:13.531Z,36.15
2019-01-19T02:27:23.762Z,34.95
2019-01-19T02:28:34.670Z,36.25
2019-01-19T02:30:09.653Z,36.73
2019-01-19T02:31:49.841Z,35.40
2019-01-19T02:33:16.012Z,35.55
2019-01-19T02:34:46.160Z,36.50
2019-01-19T02:36:38.479Z,36.85
2019-01-19T02:37:54.569Z,36.55
2019-01-19T02:39:20.162Z,35.85
2019-01-19T02:40:33.281Z,36.64
2019-01-19T02:41:58.039Z,37.70
2019-01-19T02:43:37.457Z,37.85
2019-01-19T02:44:54.689Z,36.33
2019-01-19T02:46:26.750Z,37.40
2019-01-19T02:47:39.095Z,37.53
2019-01-19T02:49:00.883Z,37.58
2019-01-19T02:50:37.692Z,36.38
2019-01-19T02:52:10.309Z,37.40
2019-01-19T02:53:57.085Z,37.17
2019-01-19T02:55:21.581Z,37.33
2019-01-19T02:56:31.943Z,38.90
2019-01-19T02:58:04.279Z,39.80
2019-01-19T02:59:11.868Z,38.92
2019-01-19T03:00:53.211Z,38.85
2019-01-19T03:02:41.567Z,39.50
2019-01-19T03:03:46.174Z,38.42
2019-01-19T03:05:06.082Z,38.53
2019-01-19T03:05:56.281Z,38.92
2019-01-19T03:07:34.243Z,39.38
2019-01-19T03:08:59.959Z,39.13
2019-01-19T03:10:48.720Z,38.45
2019-01-19T03:12:05.409Z,37.30
2019-01-19T03:13:47.922Z,38.00
2019-01-19T03:14:37.374Z,38.45
2019-01-19T03:16:03.861Z,38.78
2019-01-19T03:17:33.807Z,37.90
2019-01-19T03:18:43.251Z,36.90
2019-01-19T03:20:17.232Z,39.10
2019-01-19T03:21:44.772Z,35.48
2019-01-19T03:23:04.438Z,38.17
2019-01-19T03:25:06.730Z,37.95
2019-01-19T03:26:35.960Z,36.80
2019-01-19T03:27:57.676Z,38.40
2019-01-19T03:29:35.316Z,39.73
2019-01-19T03:30:58.657Z,38.92
2019-01-19T03:33:06.782Z,38.23
2019-01-19T03:34:22.278Z,37.28
2019-01-19T03:35:54.362Z,39.03
2019-01-19T03:37:35.207Z,37.50
2019-01-19T03:38:55.714Z,37.70
2019-01-19T03:40:28.313Z,37.78
2019-01-19T03:41:49.178Z,37.35
2019-01-19T03:43:25.944Z,37.98
2019-01-19T03:44:51.604Z,38.35
2019-01-19T03:46:18.455Z,38.73
2019-01-19T03:47:47.088Z,39.10
2019-01-19T03:49:25.894Z,38.28
2019-01-19T03:51:05.350Z,38.45
2019-01-19T03:51:53.134Z,38.85
2019-01-19T03:53:24.670Z,38.42
2019-01-19T03:54:32.539Z,38.98
2019-01-19T03:56:00.308Z,36.68
2019-01-19T03:57:09.956Z,37.08
2019-01-19T03:58:25.564Z,39.78
2019-01-19T03:59:32.738Z,39.30
2019-01-19T04:00:36.248Z,38.83
2019-01-19T04:02:17.934Z,38.63
2019-01-19T04:03:54.630Z,38.73
2019-01-19T04:05:23.072Z,38.55
2019-01-19T04:06:48.262Z,39.78
2019-01-19T04:08:06.560Z,40.38
2019-01-19T04:09:56.155Z,39.27
2019-01-19T04:11:30.609Z,37.17
2019-01-19T04:13:07.288Z,39.40
2019-01-19T04:14:51.210Z,38.48
2019-01-19T04:16:20.621Z,39.15
2019-01-19T04:17:58.287Z,39.03
2019-01-19T04:19:01.370Z,38.65
2019-01-19T04:20:13.491Z,38.58
2019-01-19T04:21:16.983Z,38.48
2019-01-19T04:22:41.997Z,39.55
2019-01-19T04:23:15.081Z,39.35
2019-01-19T04:23:56.803Z,39.65
2019-01-19T04:25:02.217Z,38.83
2019-01-19T04:25:51.309Z,39.80
2019-01-19T04:26:36.750Z,38.85
2019-01-19T04:27:10.561Z,38.38
2019-01-19T04:27:43.729Z,38.83
2019-01-19T04:28:18.892Z,40.65
2019-01-19T04:28:52.980Z,40.17
2019-01-19T04:29:26.074Z,40.00
2019-01-19T04:29:59.187Z,38.98
2019-01-19T04:30:32.286Z,39.78
2019-01-19T04:31:05.465Z,39.08
2019-01-19T04:31:38.605Z,41.55
2019-01-19T04:32:11.823Z,40.35
2019-01-19T04:32:45.174Z,40.80
2019-01-19T04:33:19.790Z,40.35
2019-01-19T04:33:52.959Z,40.33
2019-01-19T04:34:27.735Z,38.85
2019-01-19T04:35:00.768Z,38.85
2019-01-19T04:35:33.827Z,41.18
2019-01-19T04:36:08.004Z,41.10
2019-01-19T04:36:41.175Z,39.92
2019-01-19T04:37:14.242Z,40.30
2019-01-19T04:37:47.295Z,40.08
2019-01-19T04:38:20.341Z,40.23
2019-01-19T04:38:53.490Z,39.58
2019-01-19T04:39:26.441Z,39.55
2019-01-19T04:39:59.555Z,39.83
2019-01-19T04:40:32.682Z,38.98
2019-01-19T04:41:05.640Z,38.78
2019-01-19T04:41:39.243Z,40.78
2019-01-19T04:42:12.825Z,41.63
2019-01-19T04:42:46.218Z,38.98
2019-01-19T04:43:19.161Z,40.70
2019-01-19T04:43:52.240Z,41.75
2019-01-19T04:44:25.331Z,42.08
2019-01-19T04:44:58.163Z,40.98
2019-01-19T04:45:31.235Z,40.35
2019-01-19T04:46:04.390Z,40.52
2019-01-19T04:46:37.479Z,41.60
2019-01-19T04:47:10.567Z,40.63
2019-01-19T04:47:44.761Z,41.13
2019-01-19T04:48:20.297Z,41.48
2019-01-19T04:48:53.481Z,40.00
2019-01-19T04:49:26.535Z,39.53
2019-01-19T04:49:59.535Z,40.23
2019-01-19T04:50:34.236Z,37.25
2019-01-19T04:51:07.291Z,40.78
2019-01-19T04:51:40.399Z,38.13
2019-01-19T04:52:13.402Z,40.43
2019-01-19T04:52:46.509Z,40.12
2019-01-19T04:53:19.677Z,39.55
2019-01-19T04:53:52.746Z,41.08
2019-01-19T04:54:25.716Z,39.75
2019-01-19T04:54:58.919Z,40.15
2019-01-19T04:55:32.191Z,38.78
2019-01-19T04:56:05.337Z,41.77
2019-01-19T04:56:38.394Z,40.03
2019-01-19T04:57:11.561Z,40.48
2019-01-19T04:57:44.734Z,39.25
2019-01-19T04:58:17.864Z,39.65
2019-01-19T04:58:52.511Z,41.15
2019-01-19T04:59:25.749Z,40.33
2019-01-19T04:59:58.831Z,40.65
2019-01-19T05:00:32.021Z,39.58
2019-01-19T05:01:05.084Z,40.45
2019-01-19T05:01:38.207Z,40.58
2019-01-19T05:02:11.359Z,39.20
2019-01-19T05:02:44.583Z,40.17
2019-01-19T05:03:17.667Z,40.00
2019-01-19T05:03:50.653Z,39.95
2019-01-19T05:04:24.741Z,39.15
2019-01-19T05:04:57.877Z,39.63
2019-01-19T05:05:30.887Z,40.03
2019-01-19T05:06:11.745Z,40.10
2019-01-19T05:06:39.037Z,39.65
2019-01-19T05:07:13.232Z,39.15
2019-01-19T05:07:46.377Z,38.88
2019-01-19T05:08:19.507Z,39.25
2019-01-19T05:08:52.589Z,39.55
2019-01-19T05:09:25.728Z,39.30
2019-01-19T05:09:58.887Z,40.67
2019-01-19T05:10:32.447Z,39.35
2019-01-19T05:11:05.621Z,39.30
2019-01-19T05:11:38.658Z,39.05
2019-01-19T05:12:11.731Z,40.05
2019-01-19T05:12:45.217Z,39.15
2019-01-19T05:13:19.369Z,40.85
2019-01-19T05:13:52.438Z,39.50
2019-01-19T05:14:25.457Z,40.85
2019-01-19T05:14:58.431Z,39.48
2019-01-19T05:15:31.673Z,39.05
2019-01-19T05:16:04.839Z,39.60
2019-01-19T05:16:37.925Z,39.42
2019-01-19T05:17:10.977Z,40.12
2019-01-19T05:17:44.721Z,39.83
2019-01-19T05:18:18.040Z,39.67
2019-01-19T05:18:52.257Z,40.55
2019-01-19T05:19:26.207Z,39.90
2019-01-19T05:19:59.204Z,39.05
2019-01-19T05:20:32.377Z,38.60
2019-01-19T05:21:05.660Z,40.23
2019-01-19T05:21:38.707Z,39.67
2019-01-19T05:22:11.881Z,38.50
2019-01-19T05:22:44.959Z,39.15
2019-01-19T05:23:18.163Z,38.88
2019-01-19T05:23:51.200Z,38.08
2019-01-19T05:24:24.369Z,39.45
2019-01-19T05:24:57.446Z,37.88
2019-01-19T05:25:30.384Z,38.70
2019-01-19T05:26:03.525Z,39.20
2019-01-19T05:26:36.584Z,37.30
2019-01-19T05:27:09.640Z,38.88
2019-01-19T05:27:42.799Z,37.23
2019-01-19T05:28:16.824Z,37.50
2019-01-19T05:28:50.001Z,38.42
2019-01-19T05:29:23.064Z,38.08
2019-01-19T05:29:56.025Z,39.60
2019-01-19T05:30:29.227Z,37.42
2019-01-19T05:31:02.273Z,38.70
2019-01-19T05:31:35.257Z,39.75
2019-01-19T05:32:08.490Z,38.88
2019-01-19T05:32:41.639Z,38.35
2019-01-19T05:33:14.739Z,38.15
2019-01-19T05:33:47.767Z,38.95
2019-01-19T05:34:20.854Z,39.20
2019-01-19T05:34:54.191Z,38.75
2019-01-19T05:35:28.735Z,39.65
2019-01-19T05:36:01.778Z,38.40
2019-01-19T05:36:38.426Z,38.92
2019-01-19T05:37:09.803Z,39.05
2019-01-19T05:37:43.063Z,39.95
2019-01-19T05:38:16.172Z,38.23
2019-01-19T05:38:49.239Z,39.45
2019-01-19T05:39:22.475Z,37.67
2019-01-19T05:39:55.530Z,37.70
2019-01-19T05:40:28.709Z,39.10
2019-01-19T05:41:01.580Z,39.13
2019-01-19T05:41:34.623Z,39.25
2019-01-19T05:42:07.817Z,38.92
2019-01-19T05:42:41.063Z,38.15
2019-01-19T05:43:14.176Z,39.45
2019-01-19T05:43:47.239Z,39.73
2019-01-19T05:44:20.295Z,38.92
2019-01-19T05:44:53.339Z,38.35
2019-01-19T05:45:26.512Z,39.80
2019-01-19T05:45:59.599Z,36.77
2019-01-19T05:46:34.332Z,35.48
2019-01-19T05:47:07.378Z,39.15
2019-01-19T05:47:40.756Z,36.88
2019-01-19T05:48:13.656Z,37.42
2019-01-19T05:48:46.711Z,38.05
2019-01-19T05:49:19.707Z,37.73
2019-01-19T05:49:52.910Z,39.10
2019-01-19T05:50:26.011Z,39.58
2019-01-19T05:50:59.044Z,37.45
2019-01-19T05:51:33.766Z,36.50
2019-01-19T05:52:06.725Z,39.33
2019-01-19T05:52:39.777Z,37.50
2019-01-19T05:53:12.751Z,37.75
2019-01-19T05:53:45.892Z,37.78
2019-01-19T05:54:18.941Z,37.42
2019-01-19T05:54:51.928Z,36.98
2019-01-19T05:55:24.982Z,34.25
2019-01-19T05:55:58.015Z,36.55
2019-01-19T05:56:31.056Z,37.30
2019-01-19T05:57:04.142Z,37.13
2019-01-19T05:57:37.354Z,37.98
2019-01-19T05:58:10.496Z,38.55
2019-01-19T05:58:43.667Z,37.23
2019-01-19T05:59:16.790Z,34.98
2019-01-19T05:59:49.931Z,36.83
2019-01-19T06:00:34.127Z,36.95
2019-01-19T06:01:07.243Z,37.95
2019-01-19T06:01:40.414Z,37.13
2019-01-19T06:02:13.457Z,37.48
2019-01-19T06:02:46.572Z,36.17
2019-01-19T06:03:19.612Z,35.63
2019-01-19T06:03:52.714Z,37.73
2019-01-19T06:04:25.642Z,35.52
2019-01-19T06:04:58.762Z,38.25
2019-01-19T06:05:31.932Z,37.00
2019-01-19T06:06:05.239Z,35.78
2019-01-19T06:06:46.374Z,38.50
2019-01-19T06:07:13.202Z,37.50
2019-01-19T06:07:46.274Z,37.63
2019-01-19T06:08:19.293Z,37.75
2019-01-19T06:08:52.340Z,38.30
2019-01-19T06:09:25.338Z,39.80
2019-01-19T06:09:58.382Z,37.50
2019-01-19T06:10:31.426Z,38.25
2019-01-19T06:11:04.882Z,38.13
2019-01-19T06:11:37.984Z,38.73
2019-01-19T06:12:11.043Z,38.65
2019-01-19T06:12:44.192Z,38.10
2019-01-19T06:13:17.261Z,39.80
2019-01-19T06:13:50.268Z,38.90
2019-01-19T06:14:23.340Z,39.15
2019-01-19T06:14:56.246Z,37.42
2019-01-19T06:15:29.307Z,38.33
2019-01-19T06:16:02.307Z,37.30
2019-01-19T06:16:36.176Z,38.38
2019-01-19T06:17:09.195Z,37.88
2019-01-19T06:17:42.346Z,38.65
2019-01-19T06:18:15.462Z,39.40
2019-01-19T06:18:48.682Z,38.50
2019-01-19T06:19:22.001Z,39.42
2019-01-19T06:19:55.077Z,39.40
2019-01-19T06:20:28.196Z,38.95
2019-01-19T06:21:01.461Z,38.78
2019-01-19T06:21:39.600Z,39.35
2019-01-19T06:22:12.764Z,38.05
2019-01-19T06:22:45.766Z,37.93
2019-01-19T06:23:18.946Z,38.15
2019-01-19T06:23:52.024Z,36.28
2019-01-19T06:24:24.976Z,35.05
2019-01-19T06:24:58.088Z,38.13
2019-01-19T06:25:31.315Z,37.28
2019-01-19T06:26:04.720Z,37.00
2019-01-19T06:26:37.808Z,37.85
2019-01-19T06:27:10.707Z,37.20
2019-01-19T06:27:43.912Z,38.53
2019-01-19T06:28:16.926Z,37.88
2019-01-19T06:28:49.979Z,38.70
2019-01-19T06:29:23.092Z,37.45
2019-01-19T06:29:56.062Z,38.00
2019-01-19T06:30:28.971Z,35.30
2019-01-19T06:31:03.015Z,37.53
2019-01-19T06:31:36.160Z,38.60
2019-01-19T06:32:09.206Z,35.68
2019-01-19T06:32:46.603Z,36.93
2019-01-19T06:33:19.783Z,36.45
2019-01-19T06:33:53.004Z,37.35
2019-01-19T06:34:26.229Z,38.33
2019-01-19T06:34:59.448Z,34.03
2019-01-19T06:35:32.714Z,34.30
2019-01-19T06:36:05.761Z,33.85
2019-01-19T06:36:38.834Z,33.90
2019-01-19T06:37:12.005Z,35.75
2019-01-19T06:37:45.678Z,34.83
2019-01-19T06:38:18.845Z,35.60
2019-01-19T06:38:51.880Z,34.00
2019-01-19T06:39:25.038Z,36.05
2019-01-19T06:39:58.042Z,37.13
2019-01-19T06:40:31.115Z,36.53
2019-01-19T06:41:04.225Z,33.42
2019-01-19T06:41:37.311Z,35.20
2019-01-19T06:42:10.492Z,34.90
2019-01-19T06:42:43.678Z,37.08
2019-01-19T06:43:16.794Z,36.60
2019-01-19T06:43:49.847Z,36.38
2019-01-19T06:44:23.026Z,35.45
2019-01-19T06:44:55.968Z,34.85
2019-01-19T06:45:28.988Z,35.13
2019-01-19T06:46:03.311Z,36.30
2019-01-19T06:46:36.323Z,37.13
2019-01-19T06:47:09.484Z,36.80
2019-01-19T06:47:42.651Z,37.63
2019-01-19T06:48:15.751Z,36.50
2019-01-19T06:48:48.910Z,36.63
2019-01-19T06:49:21.899Z,36.73
2019-01-19T06:49:55.072Z,35.83
2019-01-19T06:50:28.272Z,35.52
2019-01-19T06:51:01.594Z,36.05
2019-01-19T06:51:34.540Z,37.33
2019-01-19T06:52:07.623Z,37.00
2019-01-19T06:52:40.799Z,37.48
2019-01-19T06:53:13.661Z,35.90
2019-01-19T06:53:47.536Z,36.98
2019-01-19T06:54:21.625Z,37.30
2019-01-19T06:54:54.722Z,37.90
2019-01-19T06:55:33.429Z,36.28
2019-01-19T06:56:06.570Z,37.45
2019-01-19T06:56:39.655Z,37.08
2019-01-19T06:57:12.759Z,37.33
2019-01-19T06:57:45.812Z,37.30
2019-01-19T06:58:18.870Z,37.20
2019-01-19T06:58:51.918Z,38.02
2019-01-19T06:59:25.035Z,36.55
2019-01-19T06:59:58.090Z,37.48
2019-01-19T07:00:32.050Z,36.28
2019-01-19T07:01:05.232Z,37.20
2019-01-19T07:01:38.429Z,37.85
2019-01-19T07:02:11.492Z,36.55
2019-01-19T07:02:44.847Z,36.70
2019-01-19T07:03:17.900Z,36.98
2019-01-19T07:03:50.929Z,37.10
2019-01-19T07:04:23.933Z,36.65
2019-01-19T07:04:56.898Z,36.63
2019-01-19T07:05:29.973Z,36.23
2019-01-19T07:06:03.062Z,37.53
2019-01-19T07:06:36.134Z,34.88
2019-01-19T07:07:09.289Z,36.38
2019-01-19T07:07:42.510Z,36.10
2019-01-19T07:08:17.001Z,37.30
2019-01-19T07:08:50.208Z,35.78
2019-01-19T07:09:23.343Z,35.45
2019-01-19T07:09:56.439Z,37.05
2019-01-19T07:10:29.637Z,37.03
2019-01-19T07:11:02.727Z,37.10
2019-01-19T07:11:35.953Z,36.80
2019-01-19T07:12:09.084Z,35.92
2019-01-19T07:12:42.249Z,36.73
2019-01-19T07:13:15.402Z,37.65
2019-01-19T07:13:48.411Z,36.98
2019-01-19T07:14:21.599Z,35.70
2019-01-19T07:14:54.549Z,36.05
2019-01-19T07:15:27.709Z,36.33
2019-01-19T07:16:02.534Z,36.63
2019-01-19T07:16:35.714Z,35.40
2019-01-19T07:17:08.897Z,36.13
2019-01-19T07:17:42.076Z,37.90
2019-01-19T07:18:15.141Z,37.17
2019-01-19T07:18:48.281Z,35.60
2019-01-19T07:19:21.427Z,37.80
2019-01-19T07:19:54.498Z,36.55
2019-01-19T07:20:30.869Z,36.10
2019-01-19T07:21:04.247Z,36.90
2019-01-19T07:21:37.499Z,37.15
2019-01-19T07:22:10.481Z,36.68
2019-01-19T07:22:43.711Z,35.83
2019-01-19T07:23:18.426Z,37.88
2019-01-19T07:23:51.530Z,36.95
2019-01-19T07:24:24.594Z,33.58
2019-01-19T07:24:57.560Z,34.98
2019-01-19T07:25:30.405Z,35.03
2019-01-19T07:26:04.417Z,36.90
2019-01-19T07:26:37.385Z,35.90
2019-01-19T07:27:10.667Z,37.67
2019-01-19T07:27:43.693Z,34.60
2019-01-19T07:28:16.719Z,35.13
2019-01-19T07:28:49.771Z,36.58
2019-01-19T07:29:22.997Z,36.42
2019-01-19T07:29:56.081Z,36.42
2019-01-19T07:30:29.237Z,35.98
2019-01-19T07:31:02.282Z,36.90
2019-01-19T07:31:35.371Z,36.95
2019-01-19T07:32:08.427Z,37.63
2019-01-19T07:32:41.680Z,36.98
2019-01-19T07:33:14.755Z,37.38
2019-01-19T07:33:47.776Z,36.53
2019-01-19T07:34:20.830Z,37.23
2019-01-19T07:34:53.930Z,36.85
2019-01-19T07:35:27.031Z,37.98
2019-01-19T07:36:00.177Z,37.83
2019-01-19T07:36:35.665Z,37.20
2019-01-19T07:37:09.991Z,36.70
2019-01-19T07:37:43.425Z,36.90
2019-01-19T07:38:16.561Z,36.03
2019-01-19T07:38:49.625Z,36.40
2019-01-19T07:39:22.795Z,34.10
2019-01-19T07:39:55.861Z,34.58
2019-01-19T07:40:29.064Z,37.25
2019-01-19T07:41:03.236Z,35.05
2019-01-19T07:41:36.317Z,36.08
2019-01-19T07:42:09.481Z,34.65
2019-01-19T07:42:43.346Z,27.25
2019-01-19T07:43:16.501Z,34.10
2019-01-19T07:43:49.625Z,34.48
2019-01-19T07:44:22.589Z,31.85
2019-01-19T07:44:55.609Z,32.48
2019-01-19T07:45:28.739Z,37.53
2019-01-19T07:46:02.359Z,35.70
2019-01-19T07:46:35.717Z,36.70
2019-01-19T07:47:08.920Z,35.85
2019-01-19T07:47:42.999Z,36.40
2019-01-19T07:48:16.213Z,37.83
2019-01-19T07:48:49.389Z,37.70
2019-01-19T07:49:22.499Z,35.73
2019-01-19T07:49:55.633Z,36.93
2019-01-19T07:50:28.653Z,37.38
2019-01-19T07:51:01.757Z,37.60
2019-01-19T07:51:34.778Z,37.53
2019-01-19T07:52:07.802Z,38.53
2019-01-19T07:52:40.915Z,38.42
2019-01-19T07:53:14.281Z,36.80
2019-01-19T07:53:47.275Z,38.05
2019-01-19T07:54:20.207Z,36.80
2019-01-19T07:54:53.226Z,37.38
2019-01-19T07:55:26.339Z,37.03
2019-01-19T07:55:59.459Z,37.85
2019-01-19T07:56:32.503Z,38.25
2019-01-19T07:57:05.503Z,38.42
2019-01-19T07:57:38.649Z,38.75
2019-01-19T07:58:11.707Z,37.03
2019-01-19T07:58:44.723Z,37.13
2019-01-19T07:59:17.711Z,38.63
2019-01-19T07:59:50.787Z,38.80
2019-01-19T08:00:27.886Z,37.23
2019-01-19T08:01:01.011Z,36.90
2019-01-19T08:01:34.001Z,37.42
2019-01-19T08:02:07.242Z,37.85
2019-01-19T08:02:40.377Z,37.88
2019-01-19T08:03:14.733Z,37.17
2019-01-19T08:03:47.729Z,37.83
2019-01-19T08:04:20.675Z,38.30
2019-01-19T08:04:53.701Z,37.30
2019-01-19T08:05:26.856Z,36.77
2019-01-19T08:05:59.898Z,36.35
2019-01-19T08:06:32.985Z,33.45
2019-01-19T08:07:06.099Z,35.38
2019-01-19T08:07:39.171Z,36.03
2019-01-19T08:08:12.171Z,35.48
2019-01-19T08:08:45.095Z,35.60
2019-01-19T08:09:18.205Z,35.80
2019-01-19T08:09:52.307Z,37.05
2019-01-19T08:10:25.306Z,36.83
2019-01-19T08:10:58.367Z,37.28
2019-01-19T08:11:31.381Z,36.90
2019-01-19T08:12:04.665Z,34.88
2019-01-19T08:12:37.779Z,35.68
2019-01-19T08:13:11.001Z,36.13
2019-01-19T08:13:44.007Z,35.33
2019-01-19T08:14:17.121Z,36.13
2019-01-19T08:14:50.139Z,37.23
2019-01-19T08:15:25.059Z,34.85
2019-01-19T08:15:58.072Z,34.85
2019-01-19T08:16:31.475Z,35.45
2019-01-19T08:17:04.487Z,35.10
2019-01-19T08:17:37.547Z,35.13
2019-01-19T08:18:16.569Z,35.83
2019-01-19T08:18:49.636Z,35.88
2019-01-19T08:19:22.655Z,32.90
2019-01-19T08:19:55.573Z,34.88
2019-01-19T08:20:28.665Z,35.23
2019-01-19T08:21:04.345Z,34.92
2019-01-19T08:21:37.463Z,35.68
2019-01-19T08:22:10.577Z,34.90
2019-01-19T08:22:43.611Z,35.03
2019-01-19T08:23:18.034Z,34.70
2019-01-19T08:23:50.951Z,35.55
2019-01-19T08:24:24.041Z,35.25
2019-01-19T08:24:57.041Z,32.75
2019-01-19T08:25:29.953Z,34.38
2019-01-19T08:26:03.081Z,35.08
2019-01-19T08:26:36.110Z,34.80
2019-01-19T08:27:09.195Z,34.35
2019-01-19T08:27:42.283Z,34.73
2019-01-19T08:28:15.387Z,34.65
2019-01-19T08:28:48.403Z,34.80
2019-01-19T08:29:21.390Z,35.80
2019-01-19T08:29:54.559Z,35.38
2019-01-19T08:30:29.267Z,34.03
2019-01-19T08:31:02.277Z,31.02
2019-01-19T08:31:35.282Z,33.58
2019-01-19T08:32:08.861Z,34.58
2019-01-19T08:32:42.120Z,33.70
2019-01-19T08:33:15.216Z,31.90
2019-01-19T08:33:48.243Z,34.55
2019-01-19T08:34:21.311Z,34.45
2019-01-19T08:34:54.298Z,34.00
2019-01-19T08:35:27.927Z,34.50
2019-01-19T08:36:01.065Z,34.38
2019-01-19T08:36:34.023Z,33.65
2019-01-19T08:37:07.161Z,34.25
2019-01-19T08:37:40.222Z,31.40
2019-01-19T08:38:13.163Z,31.50
2019-01-19T08:38:46.354Z,34.00
2019-01-19T08:39:19.582Z,34.80
2019-01-19T08:39:52.726Z,34.73
2019-01-19T08:40:29.537Z,33.90
2019-01-19T08:41:02.667Z,33.78
2019-01-19T08:41:35.762Z,33.70
2019-01-19T08:42:08.923Z,33.80
2019-01-19T08:42:42.031Z,34.08
2019-01-19T08:43:37.892Z,33.48
2019-01-19T08:44:10.997Z,33.30
2019-01-19T08:44:44.194Z,33.25
2019-01-19T08:45:19.712Z,33.50
2019-01-19T08:45:52.910Z,34.60
2019-01-19T08:46:25.986Z,34.38
2019-01-19T08:46:59.034Z,34.75
2019-01-19T08:47:32.166Z,33.78
2019-01-19T08:48:05.432Z,33.63
2019-01-19T08:48:38.647Z,33.67
2019-01-19T08:49:11.691Z,33.08
2019-01-19T08:49:44.880Z,32.40
2019-01-19T08:50:18.203Z,31.95
2019-01-19T08:50:51.220Z,32.48
2019-01-19T08:51:24.264Z,32.73
2019-01-19T08:51:57.271Z,32.60
2019-01-19T08:52:30.384Z,32.48
2019-01-19T08:53:03.512Z,30.40
2019-01-19T08:53:36.690Z,32.45
2019-01-19T08:54:09.816Z,32.28
2019-01-19T08:54:42.882Z,32.42
2019-01-19T08:55:15.988Z,32.88
2019-01-19T08:55:49.190Z,32.88
2019-01-19T08:56:22.204Z,32.23
2019-01-19T08:56:56.786Z,32.15
2019-01-19T08:57:29.748Z,32.40
2019-01-19T08:58:03.249Z,31.30
2019-01-19T08:58:36.282Z,31.77
2019-01-19T08:59:09.416Z,30.35
2019-01-19T08:59:42.364Z,32.10
2019-01-19T09:00:15.568Z,32.42
2019-01-19T09:00:48.564Z,31.82
2019-01-19T09:01:21.630Z,31.40
2019-01-19T09:01:54.656Z,30.12
2019-01-19T09:02:27.903Z,30.45
2019-01-19T09:03:01.049Z,30.92
2019-01-19T09:03:34.136Z,31.95
2019-01-19T09:04:07.276Z,30.60
2019-01-19T09:04:40.416Z,32.50
2019-01-19T09:05:13.536Z,31.37
2019-01-19T09:05:46.588Z,32.42
2019-01-19T09:06:19.605Z,30.37
2019-01-19T09:06:52.688Z,30.35
2019-01-19T09:07:33.309Z,31.27
2019-01-19T09:08:00.760Z,30.62
2019-01-19T09:08:33.886Z,31.55
2019-01-19T09:09:07.022Z,30.32
2019-01-19T09:09:40.102Z,30.65
2019-01-19T09:10:13.666Z,30.75
2019-01-19T09:10:46.957Z,30.90
2019-01-19T09:11:20.086Z,30.55
2019-01-19T09:11:53.118Z,31.25
2019-01-19T09:12:26.284Z,30.37
2019-01-19T09:12:59.332Z,30.65
2019-01-19T09:13:32.472Z,30.57
2019-01-19T09:14:05.573Z,30.05
2019-01-19T09:14:38.664Z,30.57
2019-01-19T09:15:13.388Z,30.82
2019-01-19T09:15:46.986Z,30.90
2019-01-19T09:16:21.584Z,30.27
2019-01-19T09:16:54.662Z,30.35
2019-01-19T09:17:27.660Z,29.87
2019-01-19T09:18:00.842Z,30.45
2019-01-19T09:18:34.426Z,30.72
2019-01-19T09:19:07.528Z,31.33
2019-01-19T09:19:40.547Z,29.92
2019-01-19T09:20:14.440Z,30.90
2019-01-19T09:20:47.539Z,29.87
2019-01-19T09:21:20.610Z,30.17
2019-01-19T09:21:53.688Z,31.25
2019-01-19T09:22:26.758Z,30.72
2019-01-19T09:23:08.806Z,30.08
2019-01-19T09:24:01.605Z,30.75
2019-01-19T09:24:34.714Z,29.87
2019-01-19T09:25:10.690Z,30.35
2019-01-19T09:25:43.794Z,29.67
2019-01-19T09:26:16.832Z,30.10
2019-01-19T09:26:49.950Z,29.40
2019-01-19T09:27:23.096Z,29.98
2019-01-19T09:27:56.226Z,30.25
2019-01-19T09:28:29.367Z,29.63
2019-01-19T09:29:02.598Z,30.02
2019-01-19T09:29:35.628Z,30.12
2019-01-19T09:30:14.626Z,30.02
2019-01-19T09:30:47.826Z,29.77
2019-01-19T09:31:20.730Z,30.40
2019-01-19T09:31:53.815Z,30.12
2019-01-19T09:32:27.428Z,30.23
2019-01-19T09:33:00.740Z,30.25
2019-01-19T09:33:35.087Z,30.35
2019-01-19T09:34:08.206Z,30.45
2019-01-19T09:34:41.216Z,30.37
2019-01-19T09:35:15.426Z,29.72
2019-01-19T09:35:48.534Z,31.17
2019-01-19T09:36:21.615Z,30.43
2019-01-19T09:36:54.718Z,29.57
2019-01-19T09:37:27.933Z,29.35
2019-01-19T09:38:00.932Z,29.77
2019-01-19T09:38:35.370Z,30.30
2019-01-19T09:39:11.590Z,29.75
2019-01-19T09:39:44.791Z,29.80
2019-01-19T09:40:18.857Z,29.63
2019-01-19T09:40:51.937Z,29.98
2019-01-19T09:41:25.936Z,30.35
2019-01-19T09:41:59.170Z,29.57
2019-01-19T09:42:32.229Z,30.27
2019-01-19T09:43:05.422Z,30.10
2019-01-19T09:43:38.391Z,29.65
2019-01-19T09:44:11.453Z,29.98
2019-01-19T09:44:44.527Z,30.08
2019-01-19T09:45:18.170Z,30.37
2019-01-19T09:45:51.304Z,29.80
2019-01-19T09:46:26.718Z,30.05
2019-01-19T09:46:59.838Z,29.37
2019-01-19T09:47:34.620Z,30.45
2019-01-19T09:48:07.882Z,28.62
2019-01-19T09:48:41.042Z,30.35